Rhinelander, WI (54501)

8:54 PM CDT on July 23, 2016 (GMT -0500)
2nd Lake - Moen Chain | | Change Station

Elev 1604 ft 45.66 °N, 89.30 °W | Updated 1 minute ago

Light Rain
Light Rain
73.6 °F
Feels Like 72 °F
N
0.0
Wind Variable Wind from SE
Gusts 0.0 mph

Today
High -- | Low -- °F
--% Chance of Precip.
Yesterday
High -- | Low -- °F
Precip. -- in
Pressure 29.90 in
Visibility 10.0 miles
Clouds Scattered Clouds 2500 ft
Mostly Cloudy 11000 ft
Heat Index 72 °F
Dew Point 70 °F
Humidity 87%
Rainfall 0.00 in
Snow Depth Not available.
5:31 AM 8:35 PM
Waning Gibbous, 81% visible
METAR KRHI 240053Z AUTO 20004KT 10SM -RA SCT025 BKN110 23/21 A2992 RMK AO2 RAB10 SLP124 P0001 T02330211 TSNO
Pressure 29.90 in
Visibility 10.0 miles
Clouds Scattered Clouds 2500 ft
Mostly Cloudy 11000 ft
Heat Index 72 °F
Dew Point 70 °F
Humidity 87%
Rainfall 0.00 in
Snow Depth Not available.
5:31 AM 8:35 PM
Waning Gibbous, 81% visible
METAR KRHI 240053Z AUTO 20004KT 10SM -RA SCT025 BKN110 23/21 A2992 RMK AO2 RAB10 SLP124 P0001 T02330211 TSNO

10-Day Weather Forecast

Almanac

Astronomy

Jul. 23, 2016 Rise Set
Actual Time
Civil Twilight
Nautical Twilight
Astronomical Twilight
Moon
Length of Visible Light
Length of Day
Tomorrow will be .
, % of the Moon is Illuminated

Today's Extremes

State Highs State Lows

Community

WunderPhotos

Upload Photos

1,926,996 photos uploaded!

WunderBlog® & News

Nearby

Air Quality

  Air Quality AQ Index Pollutant
Not available.

Snow Depth

Station Depth Elevation

Earthquake Activity

City Distance Mag. Time & Date
Minimum magnitude displayed is 2.5.

Coastal Water Temperatures

Place Temperature

Stations

Nearby Weather Stations

Station Location Temp. Windchill Dew Point Humidity Wind Precip. Elev Updated Type
                   

Watches & Warnings

There are currently no watches in effect.